sensor_id;sensor_type;location;lat;lon;timestamp;pressure;altitude;pressure_sealevel;temperature;humidity
38939;BME280;24211;49.980;19.776;2022-09-13T00:01:09;99222.88;;;12.23;66.74
38939;BME280;24211;49.980;19.776;2022-09-13T00:03:41;99221.72;;;12.19;66.84
38939;BME280;24211;49.980;19.776;2022-09-13T00:06:16;99226.03;;;12.20;66.61
38939;BME280;24211;49.980;19.776;2022-09-13T00:08:45;99222.78;;;12.18;66.77
38939;BME280;24211;49.980;19.776;2022-09-13T00:11:24;99216.25;;;12.14;66.31
38939;BME280;24211;49.980;19.776;2022-09-13T00:13:56;99216.16;;;12.09;66.81
38939;BME280;24211;49.980;19.776;2022-09-13T00:16:27;99211.28;;;12.06;66.42
38939;BME280;24211;49.980;19.776;2022-09-13T00:18:55;99211.75;;;12.03;66.85
38939;BME280;24211;49.980;19.776;2022-09-13T00:21:23;99210.59;;;11.99;67.08
38939;BME280;24211;49.980;19.776;2022-09-13T00:23:53;99213.50;;;11.97;66.88
38939;BME280;24211;49.980;19.776;2022-09-13T00:26:25;99211.53;;;11.93;66.70
38939;BME280;24211;49.980;19.776;2022-09-13T00:28:56;99210.38;;;11.89;66.51
38939;BME280;24211;49.980;19.776;2022-09-13T00:31:26;99202.81;;;11.86;67.16
38939;BME280;24211;49.980;19.776;2022-09-13T00:33:58;99208.06;;;11.80;66.91
38939;BME280;24211;49.980;19.776;2022-09-13T00:36:28;99208.50;;;11.77;66.84
38939;BME280;24211;49.980;19.776;2022-09-13T00:38:55;99208.75;;;11.76;67.31
38939;BME280;24211;49.980;19.776;2022-09-13T00:41:23;99206.53;;;11.73;67.20
38939;BME280;24211;49.980;19.776;2022-09-13T00:43:57;99206.22;;;11.69;66.86
38939;BME280;24211;49.980;19.776;2022-09-13T00:46:40;99209.31;;;11.66;67.05
38939;BME280;24211;49.980;19.776;2022-09-13T00:49:22;99210.81;;;11.62;66.91
38939;BME280;24211;49.980;19.776;2022-09-13T00:52:02;99203.84;;;11.61;67.24
38939;BME280;24211;49.980;19.776;2022-09-13T00:54:42;99212.91;;;11.60;66.99
38939;BME280;24211;49.980;19.776;2022-09-13T00:57:12;99206.41;;;11.56;67.06
38939;BME280;24211;49.980;19.776;2022-09-13T01:00:07;99201.97;;;11.50;67.22
38939;BME280;24211;49.980;19.776;2022-09-13T01:02:42;99195.47;;;11.46;67.17
38939;BME280;24211;49.980;19.776;2022-09-13T01:05:14;99200.72;;;11.41;67.29
38939;BME280;24211;49.980;19.776;2022-09-13T01:07:43;99192.94;;;11.40;67.34
38939;BME280;24211;49.980;19.776;2022-09-13T01:10:10;99189.91;;;11.36;67.48
38939;BME280;24211;49.980;19.776;2022-09-13T01:13:04;99185.50;;;11.30;66.92
38939;BME280;24211;49.980;19.776;2022-09-13T01:15:39;99177.34;;;11.25;67.29
38939;BME280;24211;49.980;19.776;2022-09-13T01:18:08;99186.84;;;11.21;67.05
38939;BME280;24211;49.980;19.776;2022-09-13T01:21:01;99189.41;;;11.16;67.77
38939;BME280;24211;49.980;19.776;2022-09-13T01:39:13;99197.28;;;10.88;68.35
38939;BME280;24211;49.980;19.776;2022-09-13T01:44:26;99203.09;;;10.85;68.31
38939;BME280;24211;49.980;19.776;2022-09-13T01:47:26;99207.84;;;10.83;68.51
38939;BME280;24211;49.980;19.776;2022-09-13T01:50:16;99198.63;;;10.79;67.89
38939;BME280;24211;49.980;19.776;2022-09-13T01:52:55;99209.81;;;10.76;67.54
38939;BME280;24211;49.980;19.776;2022-09-13T01:58:54;99203.75;;;10.69;67.65
38939;BME280;24211;49.980;19.776;2022-09-13T02:01:33;99203.38;;;10.65;68.00
38939;BME280;24211;49.980;19.776;2022-09-13T02:04:17;99193.97;;;10.63;67.93
38939;BME280;24211;49.980;19.776;2022-09-13T02:07:01;99187.44;;;10.59;67.90
38939;BME280;24211;49.980;19.776;2022-09-13T02:09:36;99190.78;;;10.54;67.88
38939;BME280;24211;49.980;19.776;2022-09-13T02:12:16;99186.72;;;10.52;68.10
38939;BME280;24211;49.980;19.776;2022-09-13T02:14:55;99184.28;;;10.50;67.84
38939;BME280;24211;49.980;19.776;2022-09-13T02:17:30;99184.72;;;10.47;68.21
38939;BME280;24211;49.980;19.776;2022-09-13T02:20:12;99175.28;;;10.44;67.52
38939;BME280;24211;49.980;19.776;2022-09-13T02:22:47;99163.44;;;10.40;67.99
38939;BME280;24211;49.980;19.776;2022-09-13T02:25:19;99166.69;;;10.42;68.11
38939;BME280;24211;49.980;19.776;2022-09-13T02:27:52;99174.59;;;10.37;68.36
38939;BME280;24211;49.980;19.776;2022-09-13T02:30:24;99169.69;;;10.34;68.69
38939;BME280;24211;49.980;19.776;2022-09-13T02:33:00;99178.75;;;10.33;68.28
38939;BME280;24211;49.980;19.776;2022-09-13T02:35:37;99172.16;;;10.36;68.02
38939;BME280;24211;49.980;19.776;2022-09-13T02:38:16;99175.72;;;10.30;68.18
38939;BME280;24211;49.980;19.776;2022-09-13T02:41:05;99168.50;;;10.30;68.80
38939;BME280;24211;49.980;19.776;2022-09-13T02:43:44;99162.00;;;10.26;68.39
38939;BME280;24211;49.980;19.776;2022-09-13T02:55:19;99151.91;;;10.10;68.82
38939;BME280;24211;49.980;19.776;2022-09-13T02:58:06;99155.41;;;10.11;69.21
38939;BME280;24211;49.980;19.776;2022-09-13T03:00:35;99155.63;;;10.09;69.03
38939;BME280;24211;49.980;19.776;2022-09-13T03:03:06;99148.66;;;10.08;69.47
38939;BME280;24211;49.980;19.776;2022-09-13T03:05:35;99151.91;;;10.10;69.17
38939;BME280;24211;49.980;19.776;2022-09-13T03:08:04;99153.66;;;10.05;69.58
38939;BME280;24211;49.980;19.776;2022-09-13T03:10:59;99146.22;;;10.07;69.49
38939;BME280;24211;49.980;19.776;2022-09-13T03:20:35;99140.94;;;10.00;69.44
38939;BME280;24211;49.980;19.776;2022-09-13T03:23:40;99138.06;;;10.02;69.69
38939;BME280;24211;49.980;19.776;2022-09-13T03:29:31;99127.00;;;9.98;70.22
38939;BME280;24211;49.980;19.776;2022-09-13T03:32:19;99138.13;;;9.95;70.20
38939;BME280;24211;49.980;19.776;2022-09-13T03:38:09;99130.00;;;9.90;70.00
38939;BME280;24211;49.980;19.776;2022-09-13T03:40:58;99127.19;;;9.85;70.15
38939;BME280;24211;49.980;19.776;2022-09-13T03:43:54;99122.31;;;9.82;70.13
38939;BME280;24211;49.980;19.776;2022-09-13T03:46:32;99115.56;;;9.79;70.23
38939;BME280;24211;49.980;19.776;2022-09-13T03:49:08;99124.00;;;9.76;69.83
38939;BME280;24211;49.980;19.776;2022-09-13T03:51:38;99119.94;;;9.74;70.34
38939;BME280;24211;49.980;19.776;2022-09-13T03:54:14;99117.50;;;9.72;70.58
38939;BME280;24211;49.980;19.776;2022-09-13T03:59:38;99120.00;;;9.67;70.16
38939;BME280;24211;49.980;19.776;2022-09-13T04:02:07;99111.63;;;9.64;70.38
38939;BME280;24211;49.980;19.776;2022-09-13T04:04:42;99107.13;;;9.64;69.99
38939;BME280;24211;49.980;19.776;2022-09-13T04:07:16;99111.03;;;9.62;70.44
38939;BME280;24211;49.980;19.776;2022-09-13T04:09:44;99108.66;;;9.54;70.54
38939;BME280;24211;49.980;19.776;2022-09-13T04:12:15;99103.81;;;9.51;71.26
38939;BME280;24211;49.980;19.776;2022-09-13T04:14:43;99110.16;;;9.50;70.87
38939;BME280;24211;49.980;19.776;2022-09-13T04:17:11;99112.44;;;9.46;70.88
38939;BME280;24211;49.980;19.776;2022-09-13T04:19:39;99109.44;;;9.43;71.16
38939;BME280;24211;49.980;19.776;2022-09-13T04:22:08;99108.38;;;9.44;70.76
38939;BME280;24211;49.980;19.776;2022-09-13T04:24:35;99103.50;;;9.41;71.22
38939;BME280;24211;49.980;19.776;2022-09-13T04:27:02;99103.50;;;9.41;71.33
38939;BME280;24211;49.980;19.776;2022-09-13T04:29:30;99109.63;;;9.41;70.96
38939;BME280;24211;49.980;19.776;2022-09-13T04:31:59;99107.19;;;9.40;71.23
38939;BME280;24211;49.980;19.776;2022-09-13T04:34:27;99102.88;;;9.39;71.01
38939;BME280;24211;49.980;19.776;2022-09-13T04:36:54;99108.06;;;9.34;71.26
38939;BME280;24211;49.980;19.776;2022-09-13T04:39:22;99111.34;;;9.36;71.17
38939;BME280;24211;49.980;19.776;2022-09-13T04:41:50;99111.78;;;9.33;71.03
38939;BME280;24211;49.980;19.776;2022-09-13T04:44:21;99107.47;;;9.32;71.25
38939;BME280;24211;49.980;19.776;2022-09-13T04:46:51;99111.78;;;9.33;71.48
38939;BME280;24211;49.980;19.776;2022-09-13T04:49:18;99117.56;;;9.30;71.40
38939;BME280;24211;49.980;19.776;2022-09-13T04:51:46;99113.28;;;9.29;71.61
38939;BME280;24211;49.980;19.776;2022-09-13T04:54:14;99115.94;;;9.29;71.99
38939;BME280;24211;49.980;19.776;2022-09-13T04:56:43;99116.53;;;9.31;71.76
38939;BME280;24211;49.980;19.776;2022-09-13T04:59:11;99112.97;;;9.37;71.57
38939;BME280;24211;49.980;19.776;2022-09-13T05:01:38;99109.88;;;9.40;71.25
38939;BME280;24211;49.980;19.776;2022-09-13T05:04:08;99115.34;;;9.45;71.16
38939;BME280;24211;49.980;19.776;2022-09-13T05:06:36;99108.75;;;9.47;71.44
38939;BME280;24211;49.980;19.776;2022-09-13T05:09:03;99105.41;;;9.52;70.68
38939;BME280;24211;49.980;19.776;2022-09-13T05:11:32;99104.53;;;9.58;71.79
38939;BME280;24211;49.980;19.776;2022-09-13T05:13:59;99106.88;;;9.66;71.12
38939;BME280;24211;49.980;19.776;2022-09-13T05:16:31;99108.66;;;9.72;71.02
38939;BME280;24211;49.980;19.776;2022-09-13T05:19:00;99109.97;;;9.81;70.23
38939;BME280;24211;49.980;19.776;2022-09-13T05:21:30;99110.72;;;9.88;70.33
38939;BME280;24211;49.980;19.776;2022-09-13T05:23:58;99111.44;;;9.95;69.74
38939;BME280;24211;49.980;19.776;2022-09-13T05:26:28;99114.63;;;10.04;70.56
38939;BME280;24211;49.980;19.776;2022-09-13T05:28:59;99117.81;;;10.12;69.68
38939;BME280;24211;49.980;19.776;2022-09-13T05:31:35;99111.13;;;10.21;69.75
38939;BME280;24211;49.980;19.776;2022-09-13T05:34:08;99117.78;;;10.30;69.88
38939;BME280;24211;49.980;19.776;2022-09-13T05:36:40;99116.88;;;10.36;71.00
38939;BME280;24211;49.980;19.776;2022-09-13T05:39:13;99123.38;;;10.40;71.91
38939;BME280;24211;49.980;19.776;2022-09-13T05:42:01;99120.16;;;10.50;72.31
38939;BME280;24211;49.980;19.776;2022-09-13T05:44:28;99117.50;;;10.62;72.10
38939;BME280;24211;49.980;19.776;2022-09-13T05:46:56;99112.41;;;10.72;72.04
38939;BME280;24211;49.980;19.776;2022-09-13T05:49:23;99123.34;;;10.82;71.97
38939;BME280;24211;49.980;19.776;2022-09-13T05:51:51;99124.16;;;10.94;72.24
38939;BME280;24211;49.980;19.776;2022-09-13T05:54:18;99121.03;;;10.97;71.97
38939;BME280;24211;49.980;19.776;2022-09-13T05:56:45;99122.81;;;11.03;71.65
38939;BME280;24211;49.980;19.776;2022-09-13T05:59:13;99127.78;;;11.11;71.99
38939;BME280;24211;49.980;19.776;2022-09-13T06:01:41;99117.31;;;11.21;71.91
38939;BME280;24211;49.980;19.776;2022-09-13T06:04:08;99121.84;;;11.32;71.44
38939;BME280;24211;49.980;19.776;2022-09-13T06:06:38;99117.31;;;11.44;73.03
38939;BME280;24211;49.980;19.776;2022-09-13T06:09:05;99120.78;;;11.56;71.15
38939;BME280;24211;49.980;19.776;2022-09-13T06:11:34;99120.56;;;11.69;74.10
38939;BME280;24211;49.980;19.776;2022-09-13T06:14:02;99126.34;;;11.78;71.09
38939;BME280;24211;49.980;19.776;2022-09-13T06:16:30;99125.72;;;11.88;72.35
38939;BME280;24211;49.980;19.776;2022-09-13T06:18:59;99122.44;;;11.97;74.28
38939;BME280;24211;49.980;19.776;2022-09-13T06:21:28;99118.56;;;12.05;73.79
38939;BME280;24211;49.980;19.776;2022-09-13T06:23:56;99117.94;;;12.14;70.09
38939;BME280;24211;49.980;19.776;2022-09-13T06:26:26;99117.31;;;12.24;69.55
38939;BME280;24211;49.980;19.776;2022-09-13T06:29:10;99119.97;;;12.35;69.17
38939;BME280;24211;49.980;19.776;2022-09-13T06:31:38;99118.34;;;12.51;68.43
38939;BME280;24211;49.980;19.776;2022-09-13T06:34:11;99119.50;;;12.72;72.46
38939;BME280;24211;49.980;19.776;2022-09-13T06:36:42;99112.19;;;12.84;70.10
38939;BME280;24211;49.980;19.776;2022-09-13T06:39:09;99110.00;;;12.97;69.95
38939;BME280;24211;49.980;19.776;2022-09-13T06:41:37;99106.72;;;13.07;72.50
38939;BME280;24211;49.980;19.776;2022-09-13T06:44:04;99111.50;;;13.22;70.78
38939;BME280;24211;49.980;19.776;2022-09-13T06:46:33;99115.75;;;13.39;70.51
38939;BME280;24211;49.980;19.776;2022-09-13T06:49:06;99107.16;;;13.59;71.84
38939;BME280;24211;49.980;19.776;2022-09-13T06:51:36;99111.03;;;13.68;75.19
38939;BME280;24211;49.980;19.776;2022-09-13T06:54:04;99111.31;;;13.93;72.60
38939;BME280;24211;49.980;19.776;2022-09-13T06:56:35;99116.50;;;14.21;73.77
38939;BME280;24211;49.980;19.776;2022-09-13T06:59:06;99122.06;;;14.36;73.94
38939;BME280;24211;49.980;19.776;2022-09-13T07:01:42;99118.41;;;14.48;75.11
38939;BME280;24211;49.980;19.776;2022-09-13T07:04:15;99119.09;;;14.65;75.18
38939;BME280;24211;49.980;19.776;2022-09-13T07:06:46;99122.00;;;14.90;75.23
38939;BME280;24211;49.980;19.776;2022-09-13T07:09:20;99116.53;;;15.17;75.11
38939;BME280;24211;49.980;19.776;2022-09-13T07:11:53;99113.13;;;15.31;74.37
38939;BME280;24211;49.980;19.776;2022-09-13T07:14:24;99113.81;;;15.48;72.55
38939;BME280;24211;49.980;19.776;2022-09-13T07:16:54;99110.72;;;15.77;72.73
38939;BME280;24211;49.980;19.776;2022-09-13T07:19:24;99106.50;;;16.01;70.53
38939;BME280;24211;49.980;19.776;2022-09-13T07:21:56;99097.38;;;16.22;70.64
38939;BME280;24211;49.980;19.776;2022-09-13T07:24:24;99093.66;;;16.38;69.67
38939;BME280;24211;49.980;19.776;2022-09-13T07:26:51;99089.41;;;16.67;69.13
38939;BME280;24211;49.980;19.776;2022-09-13T07:29:21;99087.47;;;17.13;68.64
38939;BME280;24211;49.980;19.776;2022-09-13T07:31:53;99080.13;;;17.59;66.35
38939;BME280;24211;49.980;19.776;2022-09-13T07:34:23;99080.53;;;17.86;65.85
38939;BME280;24211;49.980;19.776;2022-09-13T07:36:51;99085.66;;;17.93;66.32
38939;BME280;24211;49.980;19.776;2022-09-13T07:39:19;99095.63;;;17.97;65.01
38939;BME280;24211;49.980;19.776;2022-09-13T07:41:50;99095.00;;;18.15;65.04
38939;BME280;24211;49.980;19.776;2022-09-13T07:44:18;99086.31;;;18.18;65.67
38939;BME280;24211;49.980;19.776;2022-09-13T07:46:45;99086.91;;;18.10;65.82
38939;BME280;24211;49.980;19.776;2022-09-13T07:49:17;99095.50;;;18.22;65.50
38939;BME280;24211;49.980;19.776;2022-09-13T07:51:45;99085.38;;;18.38;64.73
38939;BME280;24211;49.980;19.776;2022-09-13T07:54:15;99083.44;;;18.49;65.14
38939;BME280;24211;49.980;19.776;2022-09-13T07:56:45;99077.81;;;18.79;64.25
38939;BME280;24211;49.980;19.776;2022-09-13T07:59:15;99082.53;;;18.92;63.80
38939;BME280;24211;49.980;19.776;2022-09-13T08:01:46;99076.84;;;19.22;62.41
38939;BME280;24211;49.980;19.776;2022-09-13T08:04:23;99079.38;;;19.42;62.01
38939;BME280;24211;49.980;19.776;2022-09-13T08:06:50;99076.78;;;19.56;61.28
38939;BME280;24211;49.980;19.776;2022-09-13T08:09:18;99060.50;;;19.80;61.00
38939;BME280;24211;49.980;19.776;2022-09-13T08:11:49;99067.66;;;19.71;61.53
38939;BME280;24211;49.980;19.776;2022-09-13T08:14:21;99066.97;;;19.84;60.90
38939;BME280;24211;49.980;19.776;2022-09-13T08:16:53;99064.34;;;19.97;60.11
38939;BME280;24211;49.980;19.776;2022-09-13T08:19:21;99056.16;;;20.21;59.44
38939;BME280;24211;49.980;19.776;2022-09-13T08:21:48;99055.59;;;20.24;59.21
38939;BME280;24211;49.980;19.776;2022-09-13T08:24:19;99050.22;;;20.56;58.04
38939;BME280;24211;49.980;19.776;2022-09-13T08:26:53;99044.88;;;20.51;58.68
38939;BME280;24211;49.980;19.776;2022-09-13T08:29:20;99040.38;;;20.60;58.55
38939;BME280;24211;49.980;19.776;2022-09-13T08:31:50;99036.19;;;20.49;58.54
38939;BME280;24211;49.980;19.776;2022-09-13T08:34:17;99034.63;;;20.62;57.88
38939;BME280;24211;49.980;19.776;2022-09-13T08:36:47;99034.47;;;20.72;57.78
38939;BME280;24211;49.980;19.776;2022-09-13T08:39:14;99022.94;;;20.94;57.00
38939;BME280;24211;49.980;19.776;2022-09-13T08:44:27;99027.97;;;21.46;56.43
38939;BME280;24211;49.980;19.776;2022-09-13T08:47:24;99019.22;;;21.49;55.55
38939;BME280;24211;49.980;19.776;2022-09-13T08:56:09;99019.75;;;22.36;53.08
38939;BME280;24211;49.980;19.776;2022-09-13T09:01:55;99027.09;;;22.13;53.12
38939;BME280;24211;49.980;19.776;2022-09-13T09:04:45;99015.94;;;22.24;53.02
38939;BME280;24211;49.980;19.776;2022-09-13T09:07:23;99015.97;;;22.46;52.33
38939;BME280;24211;49.980;19.776;2022-09-13T09:09:59;99023.88;;;22.56;51.63
38939;BME280;24211;49.980;19.776;2022-09-13T09:12:35;99017.09;;;22.89;50.05
38939;BME280;24211;49.980;19.776;2022-09-13T09:15:21;99014.00;;;22.60;51.59
38939;BME280;24211;49.980;19.776;2022-09-13T09:18:28;99013.78;;;22.70;51.96
38939;BME280;24211;49.980;19.776;2022-09-13T09:21:00;99009.66;;;22.81;51.36
38939;BME280;24211;49.980;19.776;2022-09-13T09:23:52;99003.69;;;23.01;51.50
38939;BME280;24211;49.980;19.776;2022-09-13T09:26:25;98998.59;;;23.08;50.89
38939;BME280;24211;49.980;19.776;2022-09-13T09:29:16;98997.78;;;23.38;50.68
38939;BME280;24211;49.980;19.776;2022-09-13T09:37:28;98976.38;;;23.97;48.69
38939;BME280;24211;49.980;19.776;2022-09-13T09:40:02;98980.44;;;24.17;48.09
38939;BME280;24211;49.980;19.776;2022-09-13T09:42:43;98976.91;;;24.25;47.46
38939;BME280;24211;49.980;19.776;2022-09-13T09:45:27;98978.03;;;24.32;47.52
38939;BME280;24211;49.980;19.776;2022-09-13T09:48:04;98972.72;;;24.44;47.28
38939;BME280;24211;49.980;19.776;2022-09-13T09:50:41;98972.38;;;24.54;47.49
38939;BME280;24211;49.980;19.776;2022-09-13T09:53:35;98966.38;;;24.69;46.85
38939;BME280;24211;49.980;19.776;2022-09-13T09:56:25;98967.69;;;24.81;45.59
38939;BME280;24211;49.980;19.776;2022-09-13T09:58:53;98961.25;;;24.77;44.72
38939;BME280;24211;49.980;19.776;2022-09-13T10:01:44;98956.09;;;24.84;44.61
38939;BME280;24211;49.980;19.776;2022-09-13T10:06:42;98945.16;;;24.84;43.86
38939;BME280;24211;49.980;19.776;2022-09-13T10:09:19;98943.56;;;24.83;44.22
38939;BME280;24211;49.980;19.776;2022-09-13T10:11:53;98952.03;;;24.90;45.23
38939;BME280;24211;49.980;19.776;2022-09-13T10:14:44;98945.59;;;24.94;45.44
38939;BME280;24211;49.980;19.776;2022-09-13T10:17:23;98942.50;;;25.04;45.52
38939;BME280;24211;49.980;19.776;2022-09-13T10:22:32;98925.13;;;25.67;40.99
38939;BME280;24211;49.980;19.776;2022-09-13T10:25:25;98933.03;;;25.31;42.71
38939;BME280;24211;49.980;19.776;2022-09-13T10:27:59;98930.31;;;25.31;43.10
38939;BME280;24211;49.980;19.776;2022-09-13T10:30:45;98929.84;;;25.29;43.40
38939;BME280;24211;49.980;19.776;2022-09-13T10:33:32;98916.94;;;25.38;43.40
38939;BME280;24211;49.980;19.776;2022-09-13T10:36:23;98910.41;;;25.51;43.49
38939;BME280;24211;49.980;19.776;2022-09-13T10:39:16;98925.13;;;25.67;42.59
38939;BME280;24211;49.980;19.776;2022-09-13T10:41:56;98913.50;;;25.70;42.08
38939;BME280;24211;49.980;19.776;2022-09-13T10:44:52;98911.63;;;26.04;39.87
38939;BME280;24211;49.980;19.776;2022-09-13T10:47:37;98899.75;;;26.00;40.27
38939;BME280;24211;49.980;19.776;2022-09-13T10:50:31;98896.00;;;26.04;39.86
38939;BME280;24211;49.980;19.776;2022-09-13T10:53:00;98904.97;;;26.13;40.14
38939;BME280;24211;49.980;19.776;2022-09-13T11:01:24;98904.72;;;26.39;41.32
38939;BME280;24211;49.980;19.776;2022-09-13T11:04:29;98900.63;;;26.45;41.43
38939;BME280;24211;49.980;19.776;2022-09-13T11:10:28;98905.22;;;26.65;37.85
38939;BME280;24211;49.980;19.776;2022-09-13T11:13:16;98900.41;;;26.62;38.13
38939;BME280;24211;49.980;19.776;2022-09-13T11:16:10;98891.97;;;26.67;37.67
38939;BME280;24211;49.980;19.776;2022-09-13T11:19:06;98885.50;;;26.84;37.64
38939;BME280;24211;49.980;19.776;2022-09-13T11:31:03;98861.84;;;27.27;35.51
38939;BME280;24211;49.980;19.776;2022-09-13T11:34:12;98868.06;;;27.12;36.17
38939;BME280;24211;49.980;19.776;2022-09-13T11:48:18;98845.41;;;28.07;35.31
38939;BME280;24211;49.980;19.776;2022-09-13T11:54:41;98845.53;;;28.11;34.30
38939;BME280;24211;49.980;19.776;2022-09-13T11:57:22;98830.72;;;28.15;35.12
38939;BME280;24211;49.980;19.776;2022-09-13T11:59:59;98830.22;;;28.25;35.21
38939;BME280;24211;49.980;19.776;2022-09-13T12:02:50;98820.22;;;28.33;35.59
38939;BME280;24211;49.980;19.776;2022-09-13T12:05:30;98812.47;;;28.38;36.12
38939;BME280;24211;49.980;19.776;2022-09-13T12:10:58;98793.13;;;28.97;35.26
38939;BME280;24211;49.980;19.776;2022-09-13T12:13:40;98800.28;;;29.17;33.60
38939;BME280;24211;49.980;19.776;2022-09-13T12:16:19;98801.78;;;29.15;33.19
38939;BME280;24211;49.980;19.776;2022-09-13T12:18:56;98784.97;;;29.01;33.74
38939;BME280;24211;49.980;19.776;2022-09-13T12:21:39;98782.13;;;28.97;35.07
38939;BME280;24211;49.980;19.776;2022-09-13T12:24:27;98763.91;;;29.43;33.02
38939;BME280;24211;49.980;19.776;2022-09-13T12:27:19;98766.22;;;29.80;31.99
38939;BME280;24211;49.980;19.776;2022-09-13T12:30:15;98759.25;;;29.66;32.75
38939;BME280;24211;49.980;19.776;2022-09-13T12:32:45;98763.59;;;29.67;33.30
38939;BME280;24211;49.980;19.776;2022-09-13T12:35:30;98756.63;;;29.73;32.36
38939;BME280;24211;49.980;19.776;2022-09-13T12:47:47;98739.25;;;29.69;33.92
38939;BME280;24211;49.980;19.776;2022-09-13T12:50:56;98735.19;;;29.63;34.29
38939;BME280;24211;49.980;19.776;2022-09-13T13:02:38;98738.38;;;28.92;36.19
38939;BME280;24211;49.980;19.776;2022-09-13T13:05:28;98734.94;;;28.80;36.08
38939;BME280;24211;49.980;19.776;2022-09-13T13:08:05;98730.53;;;28.60;35.14
38939;BME280;24211;49.980;19.776;2022-09-13T13:10:42;98726.19;;;28.43;35.09
38939;BME280;24211;49.980;19.776;2022-09-13T13:13:13;98717.88;;;28.24;35.52
38939;BME280;24211;49.980;19.776;2022-09-13T13:23:38;98711.38;;;27.85;36.74
38939;BME280;24211;49.980;19.776;2022-09-13T13:37:01;98708.31;;;28.02;34.62
38939;BME280;24211;49.980;19.776;2022-09-13T13:49:44;98698.38;;;28.44;35.32
38939;BME280;24211;49.980;19.776;2022-09-13T13:57:37;98683.84;;;28.28;33.93
38939;BME280;24211;49.980;19.776;2022-09-13T14:00:27;98682.69;;;28.29;33.80
38939;BME280;24211;49.980;19.776;2022-09-13T14:05:39;98678.22;;;28.40;35.19
38939;BME280;24211;49.980;19.776;2022-09-13T14:11:53;98667.50;;;28.51;34.07
38939;BME280;24211;49.980;19.776;2022-09-13T14:14:42;98671.16;;;28.39;35.75
38939;BME280;24211;49.980;19.776;2022-09-13T14:20:34;98659.31;;;28.04;38.12
38939;BME280;24211;49.980;19.776;2022-09-13T14:23:31;98662.38;;;27.87;38.78
38939;BME280;24211;49.980;19.776;2022-09-13T14:26:00;98663.63;;;27.74;39.26
38939;BME280;24211;49.980;19.776;2022-09-13T14:28:31;98661.75;;;27.62;39.29
38939;BME280;24211;49.980;19.776;2022-09-13T14:30:59;98654.81;;;27.53;40.26
38939;BME280;24211;49.980;19.776;2022-09-13T14:33:31;98655.78;;;27.45;39.55
38939;BME280;24211;49.980;19.776;2022-09-13T14:36:19;98643.34;;;27.35;39.24
38939;BME280;24211;49.980;19.776;2022-09-13T14:38:57;98646.50;;;27.21;40.88
38939;BME280;24211;49.980;19.776;2022-09-13T14:41:32;98642.19;;;27.08;41.40
38939;BME280;24211;49.980;19.776;2022-09-13T14:44:20;98635.19;;;26.95;41.29
38939;BME280;24211;49.980;19.776;2022-09-13T14:47:11;98643.44;;;26.83;41.00
38939;BME280;24211;49.980;19.776;2022-09-13T14:49:46;98644.03;;;26.77;41.17
38939;BME280;24211;49.980;19.776;2022-09-13T14:52:29;98644.47;;;26.67;41.81
38939;BME280;24211;49.980;19.776;2022-09-13T14:55:08;98645.06;;;26.60;42.36
38939;BME280;24211;49.980;19.776;2022-09-13T14:57:47;98631.16;;;26.53;42.34
38939;BME280;24211;49.980;19.776;2022-09-13T15:00:20;98636.06;;;26.47;41.86
38939;BME280;24211;49.980;19.776;2022-09-13T15:03:09;98633.56;;;26.42;42.24
38939;BME280;24211;49.980;19.776;2022-09-13T15:05:38;98635.72;;;26.37;42.27
38939;BME280;24211;49.980;19.776;2022-09-13T15:11:01;98629.81;;;26.23;42.49
38939;BME280;24211;49.980;19.776;2022-09-13T15:13:29;98637.47;;;26.17;42.71
38939;BME280;24211;49.980;19.776;2022-09-13T15:15:57;98639.94;;;26.10;43.26
38939;BME280;24211;49.980;19.776;2022-09-13T15:18:30;98646.69;;;26.01;43.38
38939;BME280;24211;49.980;19.776;2022-09-13T15:21:05;98649.19;;;25.93;43.27
38939;BME280;24211;49.980;19.776;2022-09-13T15:23:48;98645.78;;;25.84;43.58
38939;BME280;24211;49.980;19.776;2022-09-13T15:26:24;98645.53;;;25.77;43.39
38939;BME280;24211;49.980;19.776;2022-09-13T15:28:56;98645.63;;;25.69;43.38
38939;BME280;24211;49.980;19.776;2022-09-13T15:36:44;98635.91;;;25.47;44.13
38939;BME280;24211;49.980;19.776;2022-09-13T15:39:19;98635.94;;;25.39;44.07
38939;BME280;24211;49.980;19.776;2022-09-13T15:41:53;98631.84;;;25.32;44.11
38939;BME280;24211;49.980;19.776;2022-09-13T15:44:21;98629.63;;;25.26;44.21
38939;BME280;24211;49.980;19.776;2022-09-13T15:46:55;98639.19;;;25.20;44.34
38939;BME280;24211;49.980;19.776;2022-09-13T15:49:26;98642.50;;;25.13;44.56
38939;BME280;24211;49.980;19.776;2022-09-13T15:52:03;98641.44;;;25.06;44.75
38939;BME280;24211;49.980;19.776;2022-09-13T15:54:41;98641.94;;;24.99;44.66
38939;BME280;24211;49.980;19.776;2022-09-13T15:57:24;98637.84;;;24.93;45.13
38939;BME280;24211;49.980;19.776;2022-09-13T15:59:53;98627.44;;;24.87;45.30
38939;BME280;24211;49.980;19.776;2022-09-13T16:02:30;98626.41;;;24.79;45.25
38939;BME280;24211;49.980;19.776;2022-09-13T16:04:58;98637.00;;;24.72;45.38
38939;BME280;24211;49.980;19.776;2022-09-13T16:07:26;98631.28;;;24.65;45.82
38939;BME280;24211;49.980;19.776;2022-09-13T16:09:53;98630.19;;;24.57;46.31
38939;BME280;24211;49.980;19.776;2022-09-13T16:12:20;98626.09;;;24.51;46.13
38939;BME280;24211;49.980;19.776;2022-09-13T16:14:51;98621.94;;;24.45;46.17
38939;BME280;24211;49.980;19.776;2022-09-13T16:17:25;98620.09;;;24.37;46.30
38939;BME280;24211;49.980;19.776;2022-09-13T16:19:53;98615.94;;;24.31;46.54
38939;BME280;24211;49.980;19.776;2022-09-13T16:22:21;98622.69;;;24.25;46.88
38939;BME280;24211;49.980;19.776;2022-09-13T16:24:49;98629.50;;;24.19;46.96
38939;BME280;24211;49.980;19.776;2022-09-13T16:27:19;98631.63;;;24.14;47.07
38939;BME280;24211;49.980;19.776;2022-09-13T16:29:47;98639.19;;;24.08;47.23